createdAt,value
2018-05-13T00:00:44.471Z,13.70
2018-05-13T00:09:08.223Z,13.50
2018-05-13T00:11:35.765Z,13.50
2018-05-13T00:14:03.300Z,13.40
2018-05-13T00:16:30.904Z,13.40
2018-05-13T00:18:58.431Z,13.40
2018-05-13T00:21:25.979Z,13.40
2018-05-13T00:23:53.511Z,13.40
2018-05-13T00:26:21.820Z,13.30
2018-05-13T00:28:49.344Z,13.30
2018-05-13T00:31:17.660Z,13.30
2018-05-13T00:33:45.192Z,13.30
2018-05-13T00:36:12.747Z,13.30
2018-05-13T00:38:40.263Z,13.20
2018-05-13T00:41:07.808Z,13.30
2018-05-13T00:43:35.338Z,13.20
2018-05-13T00:46:02.887Z,13.20
2018-05-13T00:48:30.416Z,13.20
2018-05-13T00:50:57.969Z,13.20
2018-05-13T00:53:25.503Z,13.20
2018-05-13T00:55:53.050Z,13.20
2018-05-13T00:58:20.585Z,13.20
2018-05-13T01:00:48.143Z,13.20
2018-05-13T01:03:15.676Z,13.10
2018-05-13T01:05:43.988Z,13.10
2018-05-13T01:08:11.516Z,13.10
2018-05-13T01:10:39.828Z,13.10
2018-05-13T01:13:07.363Z,13.10
2018-05-13T01:15:34.910Z,13.10
2018-05-13T01:18:03.208Z,13.10
2018-05-13T01:20:31.527Z,13.10
2018-05-13T01:23:00.080Z,13.20
2018-05-13T01:25:27.634Z,13.20
2018-05-13T01:27:55.160Z,13.20
2018-05-13T01:30:22.715Z,13.20
2018-05-13T01:32:51.021Z,13.30
2018-05-13T01:35:18.572Z,13.30
2018-05-13T01:37:46.104Z,13.30
2018-05-13T01:40:14.424Z,13.30
2018-05-13T01:42:41.961Z,13.20
2018-05-13T01:45:10.279Z,13.20
2018-05-13T01:47:37.838Z,13.20
2018-05-13T01:50:05.372Z,13.10
2018-05-13T01:52:32.924Z,13.10
2018-05-13T01:55:00.456Z,13.00
2018-05-13T01:57:28.777Z,12.90
2018-05-13T01:59:56.311Z,12.90
2018-05-13T02:02:23.860Z,12.90
2018-05-13T02:04:51.395Z,12.80
2018-05-13T02:07:19.791Z,12.80
2018-05-13T02:09:47.264Z,12.80
2018-05-13T02:12:15.585Z,12.80
2018-05-13T02:14:43.120Z,12.70
2018-05-13T02:17:10.680Z,12.80
2018-05-13T02:19:38.208Z,12.80
2018-05-13T02:22:05.760Z,12.80
2018-05-13T02:24:33.296Z,12.70
2018-05-13T02:27:01.629Z,12.70
2018-05-13T02:29:29.160Z,12.70
2018-05-13T02:31:56.716Z,12.70
2018-05-13T02:34:24.248Z,12.70
2018-05-13T02:36:52.573Z,12.70
2018-05-13T02:39:20.111Z,12.70
2018-05-13T02:41:47.675Z,12.70
2018-05-13T02:44:15.248Z,12.60
2018-05-13T02:46:42.796Z,12.60
2018-05-13T02:49:10.327Z,12.60
2018-05-13T02:51:38.639Z,12.50
2018-05-13T02:54:06.174Z,12.50
2018-05-13T02:56:33.733Z,12.50
2018-05-13T02:59:01.268Z,12.40
2018-05-13T03:01:29.591Z,12.40
2018-05-13T03:03:57.160Z,12.30
2018-05-13T03:06:24.721Z,12.30
2018-05-13T03:08:52.262Z,12.20
2018-05-13T03:11:19.822Z,12.20
2018-05-13T03:13:47.355Z,12.20
2018-05-13T03:16:14.913Z,12.10
2018-05-13T03:18:43.212Z,12.10
2018-05-13T03:21:10.743Z,12.10
2018-05-13T03:23:39.059Z,12.00
2018-05-13T03:26:06.589Z,12.00
2018-05-13T03:28:34.147Z,11.90
2018-05-13T03:31:01.688Z,11.90
2018-05-13T03:33:29.254Z,11.80
2018-05-13T03:35:57.564Z,11.80
2018-05-13T03:38:25.156Z,11.80
2018-05-13T03:40:52.687Z,11.70
2018-05-13T03:43:20.243Z,11.80
2018-05-13T03:45:47.771Z,11.80
2018-05-13T03:48:15.323Z,11.70
2018-05-13T03:50:43.612Z,11.80
2018-05-13T03:53:13.142Z,11.80
2018-05-13T03:55:40.667Z,11.80
2018-05-13T03:58:08.228Z,11.90
2018-05-13T04:00:35.768Z,11.90
2018-05-13T04:03:04.092Z,12.00
2018-05-13T04:05:31.624Z,12.00
2018-05-13T04:11:27.754Z,12.10
2018-05-13T04:14:07.787Z,12.20
2018-05-13T04:16:35.360Z,12.20
2018-05-13T04:19:03.659Z,12.30
2018-05-13T04:21:31.187Z,12.30
2018-05-13T04:23:58.747Z,12.40
2018-05-13T04:26:27.053Z,12.50
2018-05-13T04:28:54.608Z,12.50
2018-05-13T04:31:22.165Z,12.60
2018-05-13T04:33:49.719Z,12.70
2018-05-13T04:36:18.016Z,12.90
2018-05-13T04:38:45.564Z,12.90
2018-05-13T04:41:13.100Z,13.00
2018-05-13T04:43:41.424Z,13.20
2018-05-13T04:46:08.957Z,13.20
2018-05-13T04:48:36.503Z,13.30
2018-05-13T04:51:04.041Z,13.50
2018-05-13T04:53:31.588Z,13.60
2018-05-13T04:55:59.121Z,13.80
2018-05-13T04:58:26.674Z,13.90
2018-05-13T05:00:54.207Z,14.00
2018-05-13T05:03:21.798Z,14.20
2018-05-13T05:05:49.317Z,14.30
2018-05-13T05:08:16.871Z,14.40
2018-05-13T05:10:44.407Z,14.60
2018-05-13T05:13:11.955Z,14.90
2018-05-13T05:15:39.487Z,15.20
2018-05-13T05:18:07.047Z,15.50
2018-05-13T05:20:34.580Z,15.80
2018-05-13T05:23:02.127Z,16.10
2018-05-13T05:25:29.655Z,16.50
2018-05-13T05:27:57.207Z,16.80
2018-05-13T05:30:24.743Z,17.20
2018-05-13T05:32:52.335Z,17.60
2018-05-13T05:35:19.866Z,18.00
2018-05-13T05:37:47.423Z,18.30
2018-05-13T05:40:14.999Z,18.70
2018-05-13T05:42:42.552Z,18.90
2018-05-13T05:45:10.088Z,19.10
2018-05-13T05:47:37.654Z,19.40
2018-05-13T05:50:05.195Z,19.80
2018-05-13T05:52:32.727Z,19.80
2018-05-13T05:55:00.280Z,20.00
2018-05-13T05:57:27.816Z,19.90
2018-05-13T05:59:55.387Z,20.40
2018-05-13T06:02:23.904Z,21.10
2018-05-13T06:04:51.455Z,21.00
2018-05-13T06:07:18.976Z,21.40
2018-05-13T06:09:46.555Z,21.40
2018-05-13T06:12:14.896Z,21.70
2018-05-13T06:14:42.416Z,21.70
2018-05-13T06:17:09.952Z,21.20
2018-05-13T06:19:37.547Z,21.70
2018-05-13T06:22:05.056Z,22.10
2018-05-13T06:24:33.371Z,23.30
2018-05-13T06:27:00.904Z,23.30
2018-05-13T06:29:28.472Z,23.30
2018-05-13T06:31:56.007Z,22.90
2018-05-13T06:34:23.567Z,22.80
2018-05-13T06:36:51.859Z,21.60
2018-05-13T06:39:19.408Z,21.60
2018-05-13T06:41:46.940Z,22.60
2018-05-13T06:44:15.280Z,22.40
2018-05-13T06:46:42.804Z,22.40
2018-05-13T06:49:10.359Z,23.60
2018-05-13T06:51:37.891Z,23.60
2018-05-13T06:54:05.436Z,22.80
2018-05-13T06:56:32.968Z,22.20
2018-05-13T06:59:00.516Z,22.20
2018-05-13T07:01:28.181Z,23.10
2018-05-13T07:03:55.726Z,24.20
2018-05-13T07:06:23.252Z,25.20
2018-05-13T07:08:51.567Z,26.60
2018-05-13T07:11:19.096Z,26.60
2018-05-13T07:13:47.408Z,26.70
2018-05-13T07:16:14.927Z,26.60
2018-05-13T07:18:43.240Z,27.20
2018-05-13T07:21:10.767Z,27.10
2018-05-13T07:23:38.311Z,27.20
2018-05-13T07:26:06.609Z,27.90
2018-05-13T07:28:34.152Z,27.90
2018-05-13T07:31:02.449Z,26.70
2018-05-13T07:33:30.000Z,26.60
2018-05-13T07:35:58.283Z,25.90
2018-05-13T07:38:26.699Z,25.90
2018-05-13T07:40:54.223Z,26.90
2018-05-13T07:43:21.792Z,26.10
2018-05-13T07:45:50.067Z,28.60
2018-05-13T07:48:17.647Z,28.50
2018-05-13T07:50:45.183Z,28.60
2018-05-13T07:53:12.711Z,28.50
2018-05-13T07:55:41.025Z,30.20
2018-05-13T07:58:08.587Z,30.20
2018-05-13T08:00:36.133Z,30.60
2018-05-13T08:03:03.656Z,29.40
2018-05-13T08:05:31.979Z,28.20
2018-05-13T08:07:59.500Z,28.20
2018-05-13T08:10:27.811Z,29.90
2018-05-13T08:12:55.331Z,29.80
2018-05-13T08:15:23.629Z,30.20
2018-05-13T08:17:51.204Z,30.20
2018-05-13T08:20:18.811Z,30.00
2018-05-13T08:22:46.291Z,30.00
2018-05-13T08:25:14.604Z,31.00
2018-05-13T08:27:42.130Z,31.00
2018-05-13T08:30:09.679Z,31.00
2018-05-13T08:32:37.974Z,31.40
2018-05-13T08:35:05.516Z,31.30
2018-05-13T08:37:33.800Z,31.30
2018-05-13T08:40:01.335Z,31.30
2018-05-13T08:42:28.861Z,30.30
2018-05-13T08:44:56.404Z,31.30
2018-05-13T08:47:23.930Z,31.50
2018-05-13T08:49:51.489Z,30.40
2018-05-13T08:52:19.022Z,29.10
2018-05-13T08:54:46.559Z,28.70
2018-05-13T08:57:14.079Z,28.70
2018-05-13T08:59:41.740Z,29.00
2018-05-13T09:02:10.291Z,29.80
2018-05-13T09:04:38.596Z,30.70
2018-05-13T09:07:06.116Z,30.60
2018-05-13T09:09:33.662Z,31.30
2018-05-13T09:12:01.196Z,31.20
2018-05-13T09:14:28.754Z,30.40
2018-05-13T09:16:56.274Z,30.30
2018-05-13T09:19:23.819Z,29.80
2018-05-13T09:21:52.138Z,28.50
2018-05-13T09:24:19.695Z,28.40
2018-05-13T09:26:47.979Z,27.80
2018-05-13T09:29:15.517Z,27.80
2018-05-13T09:31:43.034Z,29.30
2018-05-13T09:34:10.579Z,30.40
2018-05-13T09:36:38.100Z,30.60
2018-05-13T09:39:05.619Z,30.80
2018-05-13T09:41:33.934Z,29.20
2018-05-13T09:44:02.239Z,29.70
2018-05-13T09:46:29.780Z,29.70
2018-05-13T09:48:57.299Z,30.40
2018-05-13T09:51:25.612Z,30.60
2018-05-13T09:53:53.135Z,30.60
2018-05-13T09:56:20.677Z,30.90
2018-05-13T09:58:48.960Z,31.80
2018-05-13T10:01:17.353Z,31.80
2018-05-13T10:03:44.816Z,31.80
2018-05-13T10:06:12.355Z,31.60
2018-05-13T10:08:40.651Z,32.20
2018-05-13T10:11:08.199Z,32.20
2018-05-13T10:13:35.734Z,31.80
2018-05-13T10:16:03.285Z,32.50
2018-05-13T10:18:31.579Z,33.30
2018-05-13T10:20:59.885Z,34.70
2018-05-13T10:23:27.419Z,34.70
2018-05-13T10:25:55.817Z,33.50
2018-05-13T10:28:23.789Z,33.50
2018-05-13T10:30:51.345Z,33.80
2018-05-13T10:33:19.356Z,33.10
2018-05-13T10:35:46.909Z,33.80
2018-05-13T10:38:14.431Z,34.30
2018-05-13T10:40:41.975Z,34.70
2018-05-13T10:43:09.494Z,35.00
2018-05-13T10:45:37.035Z,33.90
2018-05-13T10:48:04.560Z,32.50
2018-05-13T10:50:32.707Z,31.10
2018-05-13T10:53:00.992Z,32.40
2018-05-13T10:55:29.291Z,32.70
2018-05-13T10:57:56.811Z,32.60
2018-05-13T11:00:25.116Z,33.30
2018-05-13T11:02:52.640Z,33.20
2018-05-13T11:05:20.956Z,33.50
2018-05-13T11:07:48.480Z,33.40
2018-05-13T11:10:16.802Z,34.80
2018-05-13T11:12:44.331Z,34.80
2018-05-13T11:15:11.875Z,35.30
2018-05-13T11:17:40.163Z,34.60
2018-05-13T11:20:07.707Z,34.60
2018-05-13T11:22:36.001Z,34.30
2018-05-13T11:25:03.548Z,34.30
2018-05-13T11:27:31.847Z,35.00
2018-05-13T11:29:59.395Z,35.00
2018-05-13T11:32:26.915Z,35.20
2018-05-13T11:34:54.436Z,35.20
2018-05-13T11:37:21.972Z,35.10
2018-05-13T11:39:49.499Z,34.50
2018-05-13T11:42:17.824Z,33.50
2018-05-13T11:44:45.394Z,33.40
2018-05-13T11:47:12.946Z,33.60
2018-05-13T11:49:40.468Z,33.80
2018-05-13T11:52:08.783Z,33.10
2018-05-13T11:54:36.309Z,33.10
2018-05-13T11:57:03.858Z,33.40
2018-05-13T11:59:32.144Z,33.00
2018-05-13T12:01:59.690Z,33.00
2018-05-13T12:04:27.997Z,32.50
2018-05-13T12:06:55.541Z,32.50
2018-05-13T12:09:23.071Z,32.20
2018-05-13T12:11:50.615Z,32.00
2018-05-13T12:14:18.363Z,31.70
2018-05-13T12:16:45.903Z,31.90
2018-05-13T12:19:13.433Z,32.20
2018-05-13T12:21:40.984Z,32.00
2018-05-13T12:24:09.274Z,31.10
2018-05-13T12:26:36.819Z,31.10
2018-05-13T12:29:05.877Z,31.70
2018-05-13T12:31:33.427Z,31.60
2018-05-13T12:34:01.059Z,31.40
2018-05-13T12:36:28.606Z,32.20
2018-05-13T12:38:56.269Z,32.70
2018-05-13T12:41:24.714Z,31.30
2018-05-13T12:43:53.033Z,31.70
2018-05-13T12:46:20.576Z,31.70
2018-05-13T12:48:48.099Z,32.20
2018-05-13T12:51:15.643Z,32.50
2018-05-13T12:53:43.168Z,31.90
2018-05-13T12:56:10.755Z,31.10
2018-05-13T12:58:38.285Z,30.90
2018-05-13T13:01:05.824Z,30.90
2018-05-13T13:03:33.351Z,30.70
2018-05-13T13:06:00.938Z,30.40
2018-05-13T13:08:28.456Z,30.60
2018-05-13T13:10:55.994Z,30.70
2018-05-13T13:13:23.508Z,30.70
2018-05-13T13:15:51.810Z,30.90
2018-05-13T13:18:19.331Z,30.90
2018-05-13T13:20:47.631Z,29.30
2018-05-13T13:26:27.120Z,29.90
2018-05-13T13:28:54.639Z,29.90
2018-05-13T13:31:22.183Z,30.90
2018-05-13T13:33:50.475Z,31.90
2018-05-13T13:36:18.390Z,31.90
2018-05-13T13:38:45.925Z,31.40
2018-05-13T13:41:13.479Z,31.60
2018-05-13T13:43:40.999Z,31.90
2018-05-13T13:46:09.315Z,31.80
2018-05-13T13:48:36.839Z,31.80
2018-05-13T13:51:05.156Z,30.90
2018-05-13T13:53:32.748Z,30.90
2018-05-13T13:56:00.226Z,30.60
2018-05-13T13:58:28.536Z,31.00
2018-05-13T14:00:56.064Z,31.00
2018-05-13T14:03:24.379Z,31.40
2018-05-13T14:05:51.927Z,31.40
2018-05-13T14:08:19.466Z,31.50
2018-05-13T14:10:46.992Z,31.50
2018-05-13T14:13:14.538Z,31.20
2018-05-13T14:15:42.064Z,31.00
2018-05-13T14:18:09.607Z,31.10
2018-05-13T14:20:37.195Z,31.50
2018-05-13T14:23:05.461Z,30.90
2018-05-13T14:25:32.980Z,30.90
2018-05-13T14:28:01.298Z,30.90
2018-05-13T14:30:28.833Z,30.90
2018-05-13T14:32:56.462Z,30.90
2018-05-13T14:35:24.975Z,30.90
2018-05-13T14:37:52.529Z,30.70
2018-05-13T14:40:20.048Z,30.10
2018-05-13T14:42:47.587Z,29.70
2018-05-13T14:45:23.059Z,28.80
2018-05-13T14:47:50.677Z,28.70
2018-05-13T14:50:18.688Z,28.50
2018-05-13T14:52:46.240Z,28.30
2018-05-13T14:55:13.760Z,28.20
2018-05-13T14:57:41.302Z,28.40
2018-05-13T15:00:08.819Z,28.30
2018-05-13T15:02:36.352Z,28.10
2018-05-13T15:05:03.972Z,28.30
2018-05-13T15:07:31.428Z,28.20
2018-05-13T15:09:58.959Z,27.70
2018-05-13T15:12:27.316Z,26.90
2018-05-13T15:14:54.815Z,26.90
2018-05-13T15:17:22.359Z,26.50
2018-05-13T15:19:50.659Z,25.80
2018-05-13T15:22:18.220Z,25.80
2018-05-13T15:24:46.505Z,25.60
2018-05-13T15:27:14.051Z,25.60
2018-05-13T15:29:41.566Z,25.40
2018-05-13T15:32:09.114Z,25.30
2018-05-13T15:34:36.638Z,25.40
2018-05-13T15:37:04.196Z,25.60
2018-05-13T15:39:31.723Z,25.70
2018-05-13T15:41:59.273Z,25.50
2018-05-13T15:44:27.576Z,24.90
2018-05-13T15:46:55.131Z,24.90
2018-05-13T15:49:22.671Z,24.70
2018-05-13T15:51:50.230Z,24.50
2018-05-13T15:54:18.551Z,24.00
2018-05-13T15:56:46.839Z,23.70
2018-05-13T15:59:14.399Z,23.70
2018-05-13T16:01:41.924Z,23.40
2018-05-13T16:04:09.470Z,23.30
2018-05-13T16:06:37.086Z,23.20
2018-05-13T16:09:06.262Z,23.10
2018-05-13T16:11:33.779Z,23.00
2018-05-13T16:14:02.080Z,22.70
2018-05-13T16:16:29.716Z,22.70
2018-05-13T16:18:57.332Z,22.50
2018-05-13T16:21:24.823Z,22.40
2018-05-13T16:23:53.151Z,22.30
2018-05-13T16:26:20.714Z,22.30
2018-05-13T16:28:48.276Z,22.30
2018-05-13T16:31:15.915Z,22.40
2018-05-13T16:33:43.469Z,22.40
2018-05-13T16:36:11.002Z,22.50
2018-05-13T16:38:39.320Z,22.60
2018-05-13T16:41:07.097Z,22.60
2018-05-13T16:43:35.554Z,22.70
2018-05-13T16:46:03.112Z,22.70
2018-05-13T16:48:30.726Z,22.70
2018-05-13T16:50:58.392Z,22.70
2018-05-13T16:53:26.796Z,22.70
2018-05-13T16:55:54.367Z,22.70
2018-05-13T16:58:21.946Z,22.70
2018-05-13T17:00:49.477Z,22.70
2018-05-13T17:03:17.020Z,22.70
2018-05-13T17:05:44.547Z,22.70
2018-05-13T17:08:12.083Z,22.70
2018-05-13T17:10:39.620Z,22.60
2018-05-13T17:13:15.964Z,22.60
2018-05-13T17:15:43.505Z,22.50
2018-05-13T17:18:11.820Z,22.40
2018-05-13T17:20:39.371Z,22.40
2018-05-13T17:23:06.943Z,22.40
2018-05-13T17:25:34.499Z,22.40
2018-05-13T17:28:02.084Z,22.30
2018-05-13T17:30:29.662Z,22.20
2018-05-13T17:32:57.232Z,22.20
2018-05-13T17:35:25.841Z,22.10
2018-05-13T17:37:53.387Z,21.90
2018-05-13T17:40:21.683Z,21.90
2018-05-13T17:42:49.249Z,21.80
2018-05-13T17:45:16.780Z,21.80
2018-05-13T17:47:44.517Z,21.70
2018-05-13T17:50:13.097Z,21.50
2018-05-13T17:52:40.860Z,21.50
2018-05-13T17:55:10.318Z,21.40
2018-05-13T17:57:37.982Z,21.40
2018-05-13T18:00:09.234Z,21.40
2018-05-13T18:02:38.795Z,21.30
2018-05-13T18:05:29.498Z,21.20
2018-05-13T18:08:07.242Z,21.10
2018-05-13T18:10:35.819Z,21.00
2018-05-13T18:13:03.526Z,20.90
2018-05-13T18:15:38.075Z,20.80
2018-05-13T18:18:06.711Z,20.70
2018-05-13T18:20:34.794Z,20.60
2018-05-13T18:23:03.154Z,20.40
2018-05-13T18:25:31.949Z,20.40
2018-05-13T18:28:00.810Z,20.40
2018-05-13T18:30:29.121Z,20.30
2018-05-13T18:32:58.515Z,20.20
2018-05-13T18:35:28.039Z,20.10
2018-05-13T18:37:56.420Z,19.80
2018-05-13T18:40:25.138Z,20.00
2018-05-13T18:42:52.700Z,19.90
2018-05-13T18:45:20.268Z,19.90
2018-05-13T18:47:47.991Z,19.80
2018-05-13T18:50:15.659Z,19.80
2018-05-13T18:52:47.328Z,19.70
2018-05-13T18:55:18.324Z,19.60
2018-05-13T18:57:45.875Z,19.60
2018-05-13T19:00:13.539Z,19.50
2018-05-13T19:02:41.665Z,19.50
2018-05-13T19:05:10.313Z,19.40
2018-05-13T19:07:40.437Z,19.30
2018-05-13T19:10:08.938Z,19.30
2018-05-13T19:12:36.923Z,19.10
2018-05-13T19:15:04.565Z,19.30
2018-05-13T19:17:32.284Z,19.20
2018-05-13T19:19:59.959Z,19.20
2018-05-13T19:22:27.884Z,19.20
2018-05-13T19:24:55.523Z,19.20
2018-05-13T19:27:23.076Z,19.20
2018-05-13T19:29:51.636Z,19.20
2018-05-13T19:32:19.955Z,19.20
2018-05-13T19:34:47.702Z,19.20
2018-05-13T19:37:15.644Z,19.20
2018-05-13T19:39:43.267Z,19.20
2018-05-13T19:42:11.159Z,19.20
2018-05-13T19:44:42.146Z,19.10
2018-05-13T19:47:10.664Z,19.10
2018-05-13T19:49:38.239Z,19.00
2018-05-13T19:52:07.335Z,18.90
2018-05-13T19:54:36.564Z,18.60
2018-05-13T19:57:05.386Z,18.60
2018-05-13T19:59:33.059Z,18.60
2018-05-13T20:02:01.644Z,18.50
2018-05-13T20:04:30.260Z,18.40
2018-05-13T20:09:35.745Z,17.80
2018-05-13T20:12:04.112Z,18.10
2018-05-13T20:14:31.904Z,18.10
2018-05-13T20:16:59.559Z,18.10
2018-05-13T20:19:27.211Z,18.00
2018-05-13T20:21:54.954Z,17.90
2018-05-13T20:24:23.611Z,17.80
2018-05-13T20:26:51.408Z,17.80
2018-05-13T20:29:19.900Z,17.80
2018-05-13T20:31:49.024Z,17.80
2018-05-13T20:34:16.823Z,17.80
2018-05-13T20:36:44.603Z,17.70
2018-05-13T20:39:13.119Z,17.70
2018-05-13T20:41:41.633Z,17.60
2018-05-13T20:44:09.315Z,17.50
2018-05-13T20:46:36.977Z,17.40
2018-05-13T20:49:04.698Z,17.30
2018-05-13T20:51:32.386Z,17.20
2018-05-13T20:54:00.080Z,17.20
2018-05-13T20:56:27.754Z,17.10
2018-05-13T20:58:55.376Z,17.00
2018-05-13T21:01:23.032Z,17.00
2018-05-13T21:03:50.692Z,16.90
2018-05-13T21:06:18.321Z,16.90
2018-05-13T21:08:45.999Z,16.90
2018-05-13T21:11:13.649Z,16.80
2018-05-13T21:13:41.322Z,16.80
2018-05-13T21:16:09.039Z,16.80
2018-05-13T21:18:36.665Z,16.80
2018-05-13T21:21:04.330Z,16.70
2018-05-13T21:23:32.004Z,16.70
2018-05-13T21:25:59.690Z,16.70
2018-05-13T21:28:27.287Z,16.60
2018-05-13T21:30:54.948Z,16.60
2018-05-13T21:33:23.615Z,16.60
2018-05-13T21:35:51.262Z,16.50
2018-05-13T21:38:19.726Z,16.50
2018-05-13T21:40:47.395Z,16.50
2018-05-13T21:43:15.320Z,16.50
2018-05-13T21:45:42.950Z,16.50
2018-05-13T21:48:10.579Z,16.50
2018-05-13T21:50:38.837Z,16.50
2018-05-13T21:53:06.521Z,16.50
2018-05-13T21:55:34.213Z,16.50
2018-05-13T21:58:01.872Z,16.50
2018-05-13T22:00:29.531Z,16.40
2018-05-13T22:02:57.172Z,16.40
2018-05-13T22:05:24.794Z,16.30
2018-05-13T22:07:52.462Z,16.30
2018-05-13T22:10:20.058Z,16.20
2018-05-13T22:12:47.735Z,16.20
2018-05-13T22:15:15.416Z,16.10
2018-05-13T22:17:43.088Z,16.10
2018-05-13T22:20:10.789Z,16.00
2018-05-13T22:22:38.468Z,15.90
2018-05-13T22:25:06.169Z,15.90
2018-05-13T22:27:33.849Z,15.90
2018-05-13T22:30:01.485Z,15.90
2018-05-13T22:32:29.120Z,15.80
2018-05-13T22:34:56.746Z,15.70
2018-05-13T22:37:24.417Z,15.70
2018-05-13T22:39:52.088Z,15.70
2018-05-13T22:42:19.740Z,15.60
2018-05-13T22:44:47.432Z,15.60
2018-05-13T22:47:15.172Z,15.60
2018-05-13T22:49:42.872Z,15.50
2018-05-13T22:52:10.607Z,15.50
2018-05-13T22:54:38.261Z,15.40
2018-05-13T22:57:05.935Z,15.40
2018-05-13T22:59:33.623Z,15.40
2018-05-13T23:10:39.765Z,15.20
2018-05-13T23:13:07.429Z,15.30
2018-05-13T23:15:35.340Z,15.30
2018-05-13T23:18:02.970Z,15.30
2018-05-13T23:20:30.784Z,15.30
2018-05-13T23:22:58.404Z,15.30
2018-05-13T23:25:26.092Z,15.30
2018-05-13T23:27:53.855Z,15.30
2018-05-13T23:30:21.554Z,15.30
2018-05-13T23:32:49.176Z,15.40
2018-05-13T23:35:16.807Z,15.40
2018-05-13T23:37:44.520Z,15.40
2018-05-13T23:40:12.234Z,15.40
2018-05-13T23:42:39.868Z,15.30
2018-05-13T23:45:07.509Z,15.40
2018-05-13T23:47:35.222Z,15.30
2018-05-13T23:50:02.797Z,15.30
2018-05-13T23:52:30.552Z,15.40
2018-05-13T23:54:58.205Z,15.40
2018-05-13T23:57:25.890Z,15.40
2018-05-13T23:59:53.573Z,15.30
